Time;durP1;ratioP1;P1;durP2;ratioP2;P2;SDS_P1;SDS_P2;PMS_P1;PMS_P2;Temp;Humidity;BMP_temperature;BMP_pressure;BME280_temperature;BME280_humidity;BME280_pressure;Samples;Min_cycle;Max_cycle;Signal;HPM_P1;HPM_P2
2022/03/25 00:01:52;;;;;;;26.80;12.93;;;4.90;94.70;;;;;;5144055;27;20114;-40
2022/03/25 00:04:18;;;;;;;27.27;11.93;;;4.80;95.30;;;;;;5150962;27;20029;-40
2022/03/25 00:06:43;;;;;;;27.10;12.55;;;4.70;97.60;;;;;;5151223;27;20062;-40
2022/03/25 00:09:09;;;;;;;21.98;11.98;;;4.70;96.60;;;;;;5144223;27;20459;-41
2022/03/25 00:11:35;;;;;;;22.25;11.80;;;4.70;95.60;;;;;;5142103;27;20119;-40
2022/03/25 00:14:01;;;;;;;24.30;11.88;;;4.70;97.90;;;;;;5150733;27;20102;-40
2022/03/25 00:16:26;;;;;;;27.08;12.48;;;4.70;96.80;;;;;;5150108;27;20114;-39
2022/03/25 00:18:52;;;;;;;23.17;11.38;;;4.60;97.80;;;;;;5143780;27;20337;-38
2022/03/25 00:21:18;;;;;;;24.60;10.93;;;4.60;97.60;;;;;;5140568;27;20029;-38
2022/03/25 00:23:43;;;;;;;31.48;12.95;;;4.50;97.60;;;;;;5142746;27;20028;-38
2022/03/25 00:26:09;;;;;;;23.95;12.10;;;4.60;96.80;;;;;;5134030;27;20106;-38
2022/03/25 00:28:36;;;;;;;27.90;11.15;;;4.60;98.10;;;;;;5149494;27;20031;-39
2022/03/25 00:31:03;;;;;;;24.52;12.02;;;4.60;96.90;;;;;;5150593;27;20052;-39
2022/03/25 00:33:29;;;;;;;25.88;12.40;;;4.60;96.50;;;;;;5150292;27;20022;-39
2022/03/25 00:35:54;;;;;;;25.00;11.93;;;4.60;96.00;;;;;;5132336;27;20622;-39
2022/03/25 00:38:20;;;;;;;25.05;12.25;;;4.60;97.70;;;;;;5141898;27;20102;-38
2022/03/25 00:40:46;;;;;;;24.10;10.90;;;4.50;98.40;;;;;;5129947;27;20019;-39
2022/03/25 00:43:11;;;;;;;20.95;11.20;;;4.50;98.00;;;;;;5145990;27;20547;-39
2022/03/25 00:45:36;;;;;;;20.70;11.73;;;4.30;99.40;;;;;;5142865;27;20027;-38
2022/03/25 00:48:02;;;;;;;21.88;12.00;;;4.30;99.90;;;;;;5144801;27;20075;-40
2022/03/25 00:50:28;;;;;;;24.95;12.18;;;4.10;99.90;;;;;;5149633;27;20034;-40
2022/03/25 00:52:53;;;;;;;25.23;11.85;;;4.10;99.90;;;;;;5150227;27;20098;-40
2022/03/25 00:55:19;;;;;;;24.30;11.35;;;4.00;99.90;;;;;;5132728;27;20026;-40
2022/03/25 00:57:45;;;;;;;23.60;11.32;;;4.00;99.90;;;;;;5142473;27;20029;-40
2022/03/25 01:00:12;;;;;;;23.95;11.52;;;4.00;99.90;;;;;;5133589;27;20026;-47
2022/03/25 01:02:38;;;;;;;22.27;11.93;;;4.00;99.90;;;;;;5138229;27;20092;-50
2022/03/25 01:05:05;;;;;;;20.58;11.75;;;4.00;99.90;;;;;;5129750;27;20488;-47
2022/03/25 01:07:30;;;;;;;26.52;12.10;;;3.90;99.90;;;;;;5129366;27;20024;-47
2022/03/25 01:09:56;;;;;;;22.92;12.27;;;3.90;99.90;;;;;;5126535;27;20019;-47
2022/03/25 01:12:21;;;;;;;24.83;12.63;;;3.90;99.90;;;;;;5141840;27;20256;-46
2022/03/25 01:14:47;;;;;;;23.40;11.35;;;3.90;99.90;;;;;;5146437;27;20491;-47
2022/03/25 01:17:14;;;;;;;20.30;10.35;;;3.90;99.90;;;;;;5142293;27;20047;-47
2022/03/25 01:19:41;;;;;;;22.55;11.57;;;3.90;99.90;;;;;;5128616;27;20023;-47
2022/03/25 01:22:06;;;;;;;24.95;12.35;;;3.80;99.90;;;;;;5131463;27;20025;-49
2022/03/25 01:24:32;;;;;;;29.70;12.25;;;3.70;99.90;;;;;;5141659;27;20105;-46
2022/03/25 01:26:59;;;;;;;27.00;11.27;;;3.70;99.90;;;;;;5139968;27;20027;-47
2022/03/25 01:29:24;;;;;;;22.13;11.25;;;3.70;99.90;;;;;;5139351;27;20446;-47
2022/03/25 01:31:50;;;;;;;21.52;12.13;;;3.70;99.90;;;;;;5150325;27;20396;-48
2022/03/25 01:34:15;;;;;;;33.40;11.55;;;3.60;99.90;;;;;;5137825;27;20038;-48
2022/03/25 01:36:41;;;;;;;20.63;11.10;;;3.70;99.90;;;;;;5153919;27;20244;-48
2022/03/25 01:39:06;;;;;;;29.85;12.52;;;3.60;99.90;;;;;;5141075;27;20472;-47
2022/03/25 01:41:32;;;;;;;24.67;11.98;;;3.60;99.90;;;;;;5142942;27;20122;-48
2022/03/25 01:43:59;;;;;;;23.73;12.73;;;3.60;99.90;;;;;;5152644;27;20018;-47
2022/03/25 01:46:26;;;;;;;26.95;12.93;;;3.70;99.90;;;;;;5153911;27;20027;-47
2022/03/25 01:48:52;;;;;;;24.38;13.10;;;3.70;99.90;;;;;;5153004;27;20035;-47
2022/03/25 01:51:32;;;;;;;23.13;11.18;;;3.70;99.90;;;;;;5144896;27;20054;-49
2022/03/25 01:54:01;;;;;;;23.23;12.15;;;3.70;99.90;;;;;;5147414;27;20072;-47
2022/03/25 01:56:27;;;;;;;24.58;12.23;;;3.70;99.90;;;;;;5153481;27;20034;-47
2022/03/25 01:58:52;;;;;;;20.73;11.60;;;3.70;99.90;;;;;;5152786;27;20022;-47
2022/03/25 02:01:18;;;;;;;26.40;12.18;;;3.60;99.90;;;;;;5146049;27;20072;-47
2022/03/25 02:03:44;;;;;;;24.02;12.43;;;3.60;99.90;;;;;;5144784;27;20015;-47
2022/03/25 02:06:10;;;;;;;20.88;10.82;;;3.50;99.90;;;;;;5153496;27;20499;-47
2022/03/25 02:08:35;;;;;;;20.83;11.20;;;3.40;99.90;;;;;;5152371;27;20022;-49
2022/03/25 02:11:01;;;;;;;24.48;13.27;;;3.40;99.90;;;;;;5135426;27;20038;-47
2022/03/25 02:13:27;;;;;;;21.70;12.23;;;3.30;99.90;;;;;;5151281;27;20030;-51
2022/03/25 02:15:52;;;;;;;28.33;12.18;;;3.30;99.90;;;;;;5137114;27;20070;-50
2022/03/25 02:18:18;;;;;;;25.38;11.43;;;3.20;99.90;;;;;;5150075;27;20022;-49
2022/03/25 02:20:45;;;;;;;23.10;12.80;;;3.20;99.90;;;;;;5152471;27;20062;-47
2022/03/25 02:23:12;;;;;;;22.83;12.25;;;3.20;99.90;;;;;;5153037;27;20015;-46
2022/03/25 02:25:38;;;;;;;26.05;12.63;;;3.20;99.90;;;;;;5138767;27;20540;-46
2022/03/25 02:28:04;;;;;;;25.40;12.30;;;3.10;99.90;;;;;;5146365;27;20034;-45
2022/03/25 02:30:33;;;;;;;25.88;12.70;;;3.20;99.90;;;;;;5152619;27;20068;-46
2022/03/25 02:33:01;;;;;;;23.55;12.68;;;3.20;99.90;;;;;;5152355;27;20023;-46
2022/03/25 02:35:40;;;;;;;24.33;11.93;;;3.20;99.90;;;;;;5140132;27;20566;-46
2022/03/25 02:38:07;;;;;;;23.30;11.45;;;3.20;99.90;;;;;;5153038;27;20493;-45
2022/03/25 02:40:32;;;;;;;27.02;11.98;;;3.20;99.90;;;;;;5148026;27;20016;-45
2022/03/25 02:42:58;;;;;;;26.20;11.75;;;3.20;99.90;;;;;;5143313;27;20027;-46
2022/03/25 02:45:24;;;;;;;25.95;12.60;;;3.20;99.90;;;;;;5148958;27;20418;-48
2022/03/25 02:47:49;;;;;;;29.40;12.80;;;3.20;99.90;;;;;;5152567;27;20160;-46
2022/03/25 02:50:16;;;;;;;24.08;12.48;;;3.20;99.90;;;;;;5152041;27;20379;-46
2022/03/25 02:52:42;;;;;;;27.50;12.93;;;3.20;99.90;;;;;;5152629;27;20027;-45
2022/03/25 02:55:08;;;;;;;28.25;14.10;;;3.30;99.90;;;;;;5152504;27;20387;-46
2022/03/25 02:57:37;;;;;;;27.38;13.40;;;3.30;99.90;;;;;;5152194;27;20041;-47
2022/03/25 03:00:08;;;;;;;24.30;12.85;;;3.20;99.90;;;;;;5141628;27;20062;-45
2022/03/25 03:02:34;;;;;;;26.73;12.75;;;3.30;99.90;;;;;;5143737;27;20443;-46
2022/03/25 03:05:00;;;;;;;19.52;11.27;;;3.20;99.90;;;;;;5137022;27;20023;-46
2022/03/25 03:07:25;;;;;;;23.75;12.57;;;3.20;99.90;;;;;;5139219;27;20034;-47
2022/03/25 03:09:50;;;;;;;31.60;12.45;;;3.10;99.90;;;;;;5151746;27;20079;-47
2022/03/25 03:12:16;;;;;;;23.05;12.73;;;3.10;99.90;;;;;;5152394;27;20063;-47
2022/03/25 03:14:42;;;;;;;24.50;11.98;;;3.00;99.90;;;;;;5152224;27;20102;-48
2022/03/25 03:17:08;;;;;;;25.75;12.02;;;3.00;99.90;;;;;;5151979;27;20099;-48
2022/03/25 03:19:34;;;;;;;24.70;12.90;;;3.00;99.90;;;;;;5134369;27;20472;-50
2022/03/25 03:22:00;;;;;;;30.45;12.68;;;3.00;99.90;;;;;;5131329;27;20019;-46
2022/03/25 03:24:26;;;;;;;22.58;11.20;;;3.00;99.90;;;;;;5130104;27;20544;-49
2022/03/25 03:26:52;;;;;;;28.23;13.50;;;3.00;99.90;;;;;;5143381;27;20114;-46
2022/03/25 03:29:18;;;;;;;23.23;12.52;;;3.00;99.80;;;;;;5151545;27;20019;-48
2022/03/25 03:31:43;;;;;;;24.02;12.13;;;3.00;99.90;;;;;;5145861;27;20057;-46
2022/03/25 03:34:09;;;;;;;20.55;12.25;;;3.00;99.90;;;;;;5123957;27;20031;-46
2022/03/25 03:36:35;;;;;;;21.65;11.65;;;2.90;99.90;;;;;;5124134;27;20073;-47
2022/03/25 03:39:00;;;;;;;25.20;12.57;;;2.80;99.90;;;;;;5118041;27;20558;-49
2022/03/25 03:41:27;;;;;;;25.65;12.23;;;2.80;99.90;;;;;;5123590;27;20026;-47
2022/03/25 03:43:53;;;;;;;28.80;12.27;;;2.80;99.90;;;;;;5124698;27;20023;-46
2022/03/25 03:46:18;;;;;;;27.00;13.70;;;2.80;99.90;;;;;;5130590;27;20124;-46
2022/03/25 03:48:44;;;;;;;24.67;12.35;;;2.70;99.90;;;;;;5117699;27;20030;-45
2022/03/25 03:51:09;;;;;;;27.17;12.50;;;2.70;99.90;;;;;;5130117;27;20023;-46
2022/03/25 03:53:35;;;;;;;24.00;11.43;;;2.60;99.90;;;;;;5130371;27;20490;-46
2022/03/25 03:56:01;;;;;;;22.20;12.65;;;2.60;99.90;;;;;;5125453;27;20230;-45
2022/03/25 03:58:26;;;;;;;21.90;11.27;;;2.60;99.90;;;;;;5122332;27;20023;-45
2022/03/25 04:00:51;;;;;;;24.85;12.93;;;2.60;99.90;;;;;;5129180;27;20030;-46
2022/03/25 04:03:17;;;;;;;27.80;12.25;;;2.60;99.90;;;;;;5133565;27;20030;-46
2022/03/25 04:05:44;;;;;;;25.75;12.30;;;2.60;99.90;;;;;;5130712;27;20080;-46
2022/03/25 04:08:10;;;;;;;28.45;12.40;;;2.50;99.90;;;;;;5130998;27;20023;-46
2022/03/25 04:10:35;;;;;;;22.98;11.95;;;2.50;99.90;;;;;;5132889;27;20033;-45
2022/03/25 04:13:01;;;;;;;26.15;13.63;;;2.50;99.90;;;;;;5145422;27;20220;-46
2022/03/25 04:15:27;;;;;;;25.00;13.18;;;2.50;99.90;;;;;;5140946;27;20037;-46
2022/03/25 04:17:52;;;;;;;27.67;13.60;;;2.50;99.90;;;;;;5143795;27;20018;-46
2022/03/25 04:20:18;;;;;;;26.02;12.93;;;2.50;99.90;;;;;;5142584;27;20019;-45
2022/03/25 04:22:45;;;;;;;25.50;12.38;;;2.50;99.90;;;;;;5142718;27;20075;-49
2022/03/25 04:25:11;;;;;;;22.77;11.80;;;2.40;99.90;;;;;;5145776;27;20034;-46
2022/03/25 04:27:51;;;;;;;25.45;12.48;;;2.40;99.90;;;;;;5141969;27;20050;-47
2022/03/25 04:30:19;;;;;;;26.88;12.80;;;2.40;99.90;;;;;;5150001;27;20475;-49
2022/03/25 04:32:44;;;;;;;31.08;14.02;;;2.50;99.90;;;;;;5150671;27;20260;-46
2022/03/25 04:35:10;;;;;;;24.88;13.07;;;2.50;99.90;;;;;;5150548;27;20054;-46
2022/03/25 04:37:35;;;;;;;30.05;14.75;;;2.50;99.90;;;;;;5150711;27;20379;-45
2022/03/25 04:40:02;;;;;;;33.33;13.73;;;2.50;99.90;;;;;;5141085;27;20014;-46
2022/03/25 04:42:28;;;;;;;30.20;12.75;;;2.40;99.90;;;;;;5142182;27;20023;-46
2022/03/25 04:44:53;;;;;;;31.95;13.85;;;2.50;99.90;;;;;;5132777;27;20275;-46
2022/03/25 04:47:18;;;;;;;29.83;14.00;;;2.50;99.90;;;;;;5147382;27;20079;-45
2022/03/25 04:49:44;;;;;;;35.72;13.55;;;2.50;99.90;;;;;;5136203;27;20053;-46
2022/03/25 04:52:10;;;;;;;30.83;14.10;;;2.50;99.90;;;;;;5141980;27;20434;-46
2022/03/25 04:54:36;;;;;;;29.75;13.80;;;2.50;99.90;;;;;;5146732;27;20102;-48
2022/03/25 04:57:02;;;;;;;32.22;13.70;;;2.50;99.90;;;;;;5141537;27;20394;-46
2022/03/25 04:59:28;;;;;;;25.95;14.02;;;2.50;99.90;;;;;;5135696;27;20023;-48
2022/03/25 05:01:55;;;;;;;26.40;12.93;;;2.60;99.90;;;;;;5109309;28;20031;-46
2022/03/25 05:04:20;;;;;;;29.17;13.30;;;2.50;99.90;;;;;;5108989;28;20096;-46
2022/03/25 05:06:46;;;;;;;31.05;13.50;;;2.50;99.90;;;;;;5130439;27;20019;-45
2022/03/25 05:09:13;;;;;;;31.48;14.45;;;2.50;99.90;;;;;;5145727;27;20577;-45
2022/03/25 05:11:38;;;;;;;32.88;14.88;;;2.50;99.90;;;;;;5150110;27;20049;-46
2022/03/25 05:14:04;;;;;;;27.50;13.32;;;2.50;99.90;;;;;;5150187;27;20478;-46
2022/03/25 05:16:29;;;;;;;31.35;14.52;;;2.40;99.90;;;;;;5150111;27;20031;-46
2022/03/25 05:18:55;;;;;;;28.33;14.18;;;2.40;99.90;;;;;;5148408;27;20026;-47
2022/03/25 05:21:21;;;;;;;25.48;12.35;;;2.50;99.90;;;;;;5137275;27;20033;-46
2022/03/25 05:23:46;;;;;;;28.10;14.20;;;2.50;99.90;;;;;;5149142;27;20429;-46
2022/03/25 05:26:12;;;;;;;32.58;14.38;;;2.50;99.90;;;;;;5133653;27;20026;-46
2022/03/25 05:28:37;;;;;;;29.95;14.27;;;2.50;99.90;;;;;;5127859;27;20106;-45
2022/03/25 05:31:03;;;;;;;29.10;13.38;;;2.50;99.90;;;;;;5126659;27;20037;-46
2022/03/25 05:33:29;;;;;;;28.48;13.75;;;2.60;99.90;;;;;;5131002;27;20038;-47
2022/03/25 05:35:54;;;;;;;23.38;13.10;;;2.50;99.90;;;;;;5137263;27;20031;-49
2022/03/25 05:38:20;;;;;;;27.83;14.63;;;2.50;99.90;;;;;;5137938;27;20037;-46
2022/03/25 05:40:45;;;;;;;28.67;13.60;;;2.60;99.90;;;;;;5132018;27;20038;-46
2022/03/25 05:43:12;;;;;;;29.20;13.70;;;2.60;99.90;;;;;;5130498;27;20123;-47
2022/03/25 05:45:37;;;;;;;26.67;13.27;;;2.60;99.90;;;;;;5123759;27;20382;-46
2022/03/25 05:48:03;;;;;;;30.85;13.52;;;2.70;99.90;;;;;;5120232;27;20015;-50
2022/03/25 05:50:29;;;;;;;30.88;13.48;;;2.70;99.90;;;;;;5122465;27;20058;-46
2022/03/25 05:52:54;;;;;;;29.02;13.77;;;2.70;99.90;;;;;;5137658;27;20514;-46
2022/03/25 05:55:20;;;;;;;27.10;13.00;;;2.80;99.90;;;;;;5132664;27;20042;-47
2022/03/25 05:57:46;;;;;;;30.98;14.98;;;2.80;99.90;;;;;;5137869;27;20015;-46
2022/03/25 06:00:14;;;;;;;23.88;12.98;;;2.80;99.90;;;;;;5136338;27;20091;-46
2022/03/25 06:02:40;;;;;;;24.40;12.57;;;2.90;99.90;;;;;;5141607;27;20547;-46
2022/03/25 06:05:06;;;;;;;29.95;12.98;;;3.00;99.90;;;;;;5135227;27;20072;-47
2022/03/25 06:07:36;;;;;;;26.58;13.48;;;3.00;99.90;;;;;;5141334;27;20479;-47
2022/03/25 06:10:03;;;;;;;27.67;14.55;;;3.10;99.90;;;;;;5137765;27;20345;-46
2022/03/25 06:12:29;;;;;;;26.83;12.73;;;3.10;99.90;;;;;;5133527;27;20067;-48
2022/03/25 06:14:54;;;;;;;28.38;13.43;;;3.00;99.90;;;;;;5134961;27;20046;-48
2022/03/25 06:17:20;;;;;;;29.08;12.90;;;3.10;99.90;;;;;;5136735;27;20102;-47
2022/03/25 06:19:46;;;;;;;26.90;13.68;;;3.20;99.90;;;;;;5137819;27;20023;-46
2022/03/25 06:22:11;;;;;;;33.20;15.10;;;3.20;99.90;;;;;;5128622;27;20024;-47
2022/03/25 06:24:37;;;;;;;27.80;14.07;;;3.30;99.90;;;;;;5121172;27;20084;-50
2022/03/25 06:27:02;;;;;;;34.28;14.40;;;3.40;99.90;;;;;;5114730;27;20039;-49
2022/03/25 06:29:29;;;;;;;30.38;15.70;;;3.50;99.90;;;;;;5122436;27;20023;-47
2022/03/25 06:31:55;;;;;;;34.22;14.75;;;3.60;99.90;;;;;;5121446;27;20101;-47
2022/03/25 06:34:21;;;;;;;32.45;16.08;;;3.60;99.90;;;;;;5127480;27;20485;-46
2022/03/25 06:36:48;;;;;;;29.45;15.50;;;3.70;99.90;;;;;;5141243;27;20022;-47
2022/03/25 06:39:14;;;;;;;34.80;15.20;;;3.70;99.90;;;;;;5141058;27;20076;-46
2022/03/25 06:41:39;;;;;;;29.88;16.67;;;3.80;99.90;;;;;;5123467;27;20034;-47
2022/03/25 06:44:05;;;;;;;36.17;18.45;;;3.90;99.90;;;;;;5122572;27;20019;-46
2022/03/25 06:46:31;;;;;;;37.80;17.73;;;3.90;99.90;;;;;;5131538;27;20102;-46
2022/03/25 06:48:57;;;;;;;32.28;16.58;;;4.00;99.90;;;;;;5141513;27;20463;-47
2022/03/25 06:51:23;;;;;;;31.50;15.88;;;4.00;99.90;;;;;;5142578;27;20114;-48
2022/03/25 06:53:49;;;;;;;32.58;16.02;;;4.00;99.90;;;;;;5128741;27;20399;-48
2022/03/25 06:56:15;;;;;;;29.48;15.13;;;4.10;99.90;;;;;;5127417;27;20023;-47
2022/03/25 06:58:41;;;;;;;31.45;16.13;;;4.10;99.90;;;;;;5119750;27;20502;-46
2022/03/25 07:01:06;;;;;;;30.13;15.52;;;4.10;99.90;;;;;;5122084;27;20373;-46
2022/03/25 07:03:33;;;;;;;26.35;14.77;;;4.20;99.90;;;;;;5130276;27;20416;-47
2022/03/25 07:06:02;;;;;;;33.67;14.88;;;4.30;99.90;;;;;;5131438;27;20023;-47
2022/03/25 07:08:29;;;;;;;29.55;15.65;;;4.40;99.90;;;;;;5137250;27;20023;-46
2022/03/25 07:10:55;;;;;;;27.95;15.18;;;4.50;99.90;;;;;;5144981;27;20102;-46
2022/03/25 07:13:22;;;;;;;28.50;14.77;;;4.60;99.90;;;;;;5152395;27;20031;-47
2022/03/25 07:15:47;;;;;;;29.13;15.43;;;4.80;99.90;;;;;;5123861;27;20027;-47
2022/03/25 07:18:13;;;;;;;33.72;16.80;;;4.90;99.90;;;;;;5122149;27;20434;-48
2022/03/25 07:20:39;;;;;;;28.58;16.58;;;5.10;99.90;;;;;;5121430;27;20027;-47
2022/03/25 07:23:04;;;;;;;32.97;16.50;;;5.20;99.90;;;;;;5123206;27;20464;-50
2022/03/25 07:25:31;;;;;;;30.95;16.83;;;5.40;99.90;;;;;;5121205;27;20019;-48
2022/03/25 07:27:57;;;;;;;33.83;16.52;;;5.40;99.90;;;;;;5121888;27;20106;-47
2022/03/25 07:30:23;;;;;;;31.55;16.25;;;5.60;99.90;;;;;;5121286;27;20105;-47
2022/03/25 07:32:48;;;;;;;33.95;16.52;;;5.70;99.90;;;;;;5120713;27;20023;-47
2022/03/25 07:35:16;;;;;;;29.25;16.60;;;5.80;99.90;;;;;;5119972;27;20106;-47
2022/03/25 07:37:42;;;;;;;36.70;16.75;;;5.90;99.90;;;;;;5119315;27;20023;-47
2022/03/25 07:40:10;;;;;;;29.42;16.98;;;6.10;99.50;;;;;;5118771;27;20020;-48
2022/03/25 07:42:37;;;;;;;32.70;15.32;;;6.20;99.30;;;;;;5122684;27;20110;-50
2022/03/25 07:45:04;;;;;;;32.42;16.48;;;6.30;99.50;;;;;;5121924;27;20019;-48
2022/03/25 07:47:32;;;;;;;33.03;16.75;;;6.50;98.90;;;;;;5117635;27;20483;-47
2022/03/25 07:50:00;;;;;;;30.40;16.02;;;6.60;98.30;;;;;;5118299;27;20019;-49
2022/03/25 07:52:26;;;;;;;27.77;16.02;;;6.80;98.00;;;;;;5123733;27;20193;-47
2022/03/25 07:54:52;;;;;;;29.13;15.32;;;7.00;97.80;;;;;;5119445;27;20412;-46
2022/03/25 07:57:17;;;;;;;28.25;16.50;;;7.20;97.40;;;;;;5123438;27;20397;-47
2022/03/25 07:59:43;;;;;;;30.50;17.10;;;7.30;97.10;;;;;;5116224;27;20388;-38
2022/03/25 08:02:09;;;;;;;31.00;16.58;;;7.50;96.20;;;;;;5118242;27;20024;-42
2022/03/25 08:04:34;;;;;;;28.83;16.10;;;7.70;94.80;;;;;;5119986;27;20036;-39
2022/03/25 08:07:00;;;;;;;34.03;17.77;;;7.90;93.90;;;;;;5120227;27;20047;-39
2022/03/25 08:09:25;;;;;;;32.42;15.85;;;8.10;93.40;;;;;;5118815;27;20507;-39
2022/03/25 08:11:51;;;;;;;34.75;18.58;;;8.30;93.00;;;;;;5127516;27;20106;-39
2022/03/25 08:14:17;;;;;;;32.28;17.33;;;8.60;92.20;;;;;;5120979;27;20023;-40
2022/03/25 08:16:44;;;;;;;31.73;16.80;;;8.80;91.90;;;;;;5120225;27;20416;-40
2022/03/25 08:19:11;;;;;;;32.13;17.35;;;9.10;91.60;;;;;;5119447;27;20012;-40
2022/03/25 08:21:37;;;;;;;30.75;16.40;;;9.40;91.10;;;;;;5124149;27;20476;-40
2022/03/25 08:29:31;;;;;;;26.05;17.50;;;11.00;84.10;;;;;;5122310;27;20034;-39
2022/03/25 08:31:56;;;;;;;32.25;18.67;;;12.20;80.40;;;;;;5120286;27;20164;-39
2022/03/25 08:34:22;;;;;;;37.60;18.98;;;13.50;70.00;;;;;;5119035;27;20368;-39
2022/03/25 08:36:50;;;;;;;31.65;18.40;;;14.60;64.40;;;;;;5118952;27;20019;-39
2022/03/25 08:39:17;;;;;;;34.75;18.08;;;16.10;61.70;;;;;;5117628;27;20015;-39
2022/03/25 08:41:43;;;;;;;31.13;19.52;;;17.30;56.10;;;;;;5122858;27;20028;-39
2022/03/25 08:44:09;;;;;;;30.73;19.88;;;18.20;52.20;;;;;;5123707;27;20016;-40
2022/03/25 08:46:35;;;;;;;33.20;20.95;;;19.10;50.60;;;;;;5117865;27;20399;-40
2022/03/25 08:49:02;;;;;;;29.15;19.58;;;19.60;46.20;;;;;;5119161;27;20019;-40
2022/03/25 08:51:28;;;;;;;26.40;18.55;;;20.50;46.20;;;;;;5116579;27;20038;-41
2022/03/25 08:53:54;;;;;;;24.10;18.88;;;21.30;44.20;;;;;;5115638;27;20411;-41
2022/03/25 08:56:27;;;;;;;25.15;18.27;;;21.90;41.60;;;;;;5117240;27;20023;-41
2022/03/25 08:58:54;;;;;;;31.58;19.48;;;22.20;42.60;;;;;;5141048;27;20111;-40
2022/03/25 09:01:21;;;;;;;32.42;20.20;;;22.80;40.90;;;;;;5150351;27;20019;-41
2022/03/25 09:03:46;;;;;;;28.63;18.20;;;23.10;39.60;;;;;;5150065;27;20541;-40
2022/03/25 09:06:12;;;;;;;31.70;20.15;;;23.40;39.20;;;;;;5150284;27;20038;-40
2022/03/25 09:08:38;;;;;;;28.40;19.00;;;24.00;37.70;;;;;;5146753;27;20042;-40
2022/03/25 09:11:03;;;;;;;26.15;18.30;;;24.50;37.90;;;;;;5132446;27;20023;-40
2022/03/25 09:13:29;;;;;;;25.40;18.80;;;24.70;36.70;;;;;;5140721;27;20027;-40
2022/03/25 09:15:54;;;;;;;23.98;17.58;;;25.00;37.10;;;;;;5131394;27;20023;-40
2022/03/25 09:18:20;;;;;;;25.02;17.85;;;25.20;36.70;;;;;;5132278;27;20077;-41
2022/03/25 09:20:46;;;;;;;24.20;16.85;;;25.50;38.30;;;;;;5126981;27;20014;-40
2022/03/25 09:23:12;;;;;;;28.27;18.17;;;25.70;35.70;;;;;;5141508;27;20225;-40
2022/03/25 09:25:38;;;;;;;25.55;16.88;;;25.80;36.20;;;;;;5142295;27;20379;-40
2022/03/25 09:28:05;;;;;;;27.45;17.52;;;26.20;35.90;;;;;;5141353;27;20019;-40
2022/03/25 09:30:31;;;;;;;29.25;18.15;;;26.60;36.20;;;;;;5145153;27;20019;-41
2022/03/25 09:32:56;;;;;;;25.63;18.17;;;26.90;35.20;;;;;;5141371;27;20029;-40
2022/03/25 09:35:22;;;;;;;28.88;19.33;;;26.90;36.90;;;;;;5145812;27;20029;-41
2022/03/25 09:37:50;;;;;;;24.63;19.02;;;27.60;35.30;;;;;;5141187;27;20026;-40
2022/03/25 09:40:25;;;;;;;32.33;22.13;;;27.50;36.20;;;;;;5138026;27;20023;-41
2022/03/25 09:42:52;;;;;;;28.00;22.27;;;27.90;35.60;;;;;;5117106;27;20027;-41
2022/03/25 09:45:19;;;;;;;29.17;22.55;;;28.00;35.60;;;;;;5119661;27;20016;-41
2022/03/25 09:47:46;;;;;;;35.22;24.92;;;27.80;36.20;;;;;;5108738;28;20020;-41
2022/03/25 09:50:14;;;;;;;37.60;24.55;;;27.90;34.50;;;;;;5139815;27;20023;-39
2022/03/25 09:52:44;;;;;;;33.97;24.90;;;28.00;35.60;;;;;;5131643;27;20392;-40
2022/03/25 09:55:30;;;;;;;33.22;23.00;;;27.90;34.70;;;;;;5120035;27;20064;-40
2022/03/25 09:57:55;;;;;;;29.10;19.55;;;27.60;35.50;;;;;;5092401;28;20423;-40
2022/03/25 10:00:21;;;;;;;30.55;20.65;;;28.10;35.20;;;;;;5101066;28;20072;-42
2022/03/25 10:02:47;;;;;;;30.00;21.60;;;28.00;35.80;;;;;;5134892;27;20117;-38
2022/03/25 10:05:20;;;;;;;27.23;20.40;;;28.40;35.30;;;;;;5144501;27;20035;-41
2022/03/25 10:07:48;;;;;;;31.05;22.23;;;28.30;35.50;;;;;;5120640;27;20559;-41
2022/03/25 10:10:20;;;;;;;33.50;22.10;;;27.90;34.50;;;;;;5138253;27;20119;-40
2022/03/25 10:12:52;;;;;;;33.25;22.10;;;27.90;36.40;;;;;;5123885;27;20246;-40
2022/03/25 10:15:19;;;;;;;29.35;20.83;;;28.20;35.90;;;;;;5119680;27;20489;-40
2022/03/25 10:18:04;;;;;;;28.95;19.67;;;28.50;34.60;;;;;;5133466;27;20030;-41
2022/03/25 10:20:38;;;;;;;30.52;22.48;;;29.00;34.50;;;;;;5122778;27;20511;-40
2022/03/25 10:23:07;;;;;;;27.92;21.35;;;28.40;33.50;;;;;;5126408;27;20023;-41
2022/03/25 10:25:33;;;;;;;;;;;29.00;35.40;;;;;;5120840;27;20437;-40
2022/03/25 10:27:59;;;;;;;31.80;21.30;;;29.20;34.00;;;;;;5134687;27;20334;-40
2022/03/25 10:30:38;;;;;;;29.98;20.45;;;28.70;35.60;;;;;;5121298;27;20038;-39
2022/03/25 10:33:12;;;;;;;28.17;20.43;;;29.20;35.30;;;;;;5120190;27;20114;-40
2022/03/25 10:35:57;;;;;;;36.28;23.65;;;28.90;35.60;;;;;;5141103;27;20023;-39
2022/03/25 10:38:24;;;;;;;35.08;24.10;;;28.50;35.00;;;;;;5130922;27;20068;-40
2022/03/25 10:40:57;;;;;;;33.42;23.65;;;28.20;34.30;;;;;;5118728;27;20023;-39
2022/03/25 10:43:24;;;;;;;38.67;24.48;;;27.40;35.40;;;;;;5137978;27;20383;-41
2022/03/25 10:45:50;;;;;;;32.35;22.90;;;27.80;35.80;;;;;;5132671;27;20526;-41
2022/03/25 10:48:21;;;;;;;33.75;24.30;;;28.60;35.90;;;;;;5132070;27;20019;-39
2022/03/25 10:50:55;;;;;;;42.65;31.05;;;29.10;35.20;;;;;;5131259;27;20023;-39
2022/03/25 10:53:26;;;;;;;27.50;21.35;;;28.90;35.70;;;;;;5131559;27;20031;-39
2022/03/25 10:55:57;;;;;;;30.42;24.63;;;29.00;35.30;;;;;;5124891;27;20047;-41
2022/03/25 10:58:23;;;;;;;38.30;24.90;;;29.60;35.90;;;;;;5130626;27;20055;-40
2022/03/25 11:00:49;;;;;;;30.60;24.20;;;29.20;34.50;;;;;;5126202;27;20065;-41
2022/03/25 11:03:16;;;;;;;30.73;22.67;;;29.40;34.40;;;;;;5140526;27;20068;-39
2022/03/25 11:05:43;;;;;;;33.15;24.77;;;29.50;34.70;;;;;;5126927;27;20037;-39
2022/03/25 11:08:09;;;;;;;33.00;25.73;;;29.80;34.30;;;;;;5129891;27;20080;-40
2022/03/25 11:10:36;;;;;;;38.38;24.45;;;29.90;33.70;;;;;;5124774;27;20373;-41
2022/03/25 11:13:05;;;;;;;29.63;22.00;;;29.50;33.40;;;;;;5143629;27;20597;-39
2022/03/25 11:15:32;;;;;;;30.95;21.33;;;29.40;34.90;;;;;;5136599;27;20027;-41
2022/03/25 11:17:58;;;;;;;28.40;22.67;;;29.30;35.00;;;;;;5114849;27;20023;-40
2022/03/25 11:20:26;;;;;;;31.13;25.17;;;29.00;34.70;;;;;;5113973;27;20495;-40
2022/03/25 11:23:05;;;;;;;28.80;22.80;;;29.10;33.60;;;;;;5138185;27;20160;-40
2022/03/25 11:25:37;;;;;;;28.63;22.02;;;29.30;33.40;;;;;;5137546;27;20023;-39
2022/03/25 11:28:07;;;;;;;33.08;24.60;;;29.70;32.70;;;;;;5137481;27;20126;-40
2022/03/25 11:30:35;;;;;;;37.75;26.48;;;29.30;34.80;;;;;;5117488;27;20032;-40
2022/03/25 11:33:03;;;;;;;37.85;27.88;;;28.40;33.70;;;;;;5129206;27;20116;-42
2022/03/25 11:35:32;;;;;;;40.92;25.73;;;28.60;32.80;;;;;;5137782;27;20016;-40
2022/03/25 11:38:12;;;;;;;37.28;26.70;;;28.20;33.60;;;;;;5111264;27;20016;-40
2022/03/25 11:40:44;;;;;;;38.85;26.08;;;27.50;34.80;;;;;;5114699;27;20314;-40
2022/03/25 11:43:20;;;;;;;30.90;23.90;;;27.70;35.80;;;;;;5142036;27;20023;-41
2022/03/25 11:46:06;;;;;;;29.48;21.52;;;27.50;35.20;;;;;;5151744;27;20026;-41
2022/03/25 11:48:41;;;;;;;32.95;25.15;;;28.20;34.70;;;;;;5149902;27;20066;-40
2022/03/25 11:51:28;;;;;;;29.27;23.42;;;27.50;34.80;;;;;;5151496;27;20050;-40
2022/03/25 11:53:54;;;;;;;28.58;21.10;;;27.30;36.40;;;;;;5151507;27;20014;-41
2022/03/25 11:56:20;;;;;;;31.40;24.52;;;27.60;37.30;;;;;;5132881;27;20058;-40
2022/03/25 11:58:55;;;;;;;39.80;21.45;;;27.90;37.00;;;;;;5140511;27;20439;-40
2022/03/25 12:01:21;;;;;;;31.65;21.85;;;28.00;36.40;;;;;;5151472;27;20510;-40
2022/03/25 12:03:49;;;;;;;34.22;23.15;;;28.40;37.50;;;;;;5138226;27;20019;-41
2022/03/25 12:06:18;;;;;;;30.70;22.27;;;28.70;36.50;;;;;;5123012;27;20089;-40
2022/03/25 12:09:18;;;;;;;25.77;19.17;;;28.60;35.90;;;;;;5118182;27;20307;-40
2022/03/25 12:11:51;;;;;;;35.53;23.27;;;28.00;35.60;;;;;;5118417;27;20397;-39
2022/03/25 12:14:31;;;;;;;37.40;25.63;;;28.10;36.70;;;;;;5124628;27;20066;-40
2022/03/25 12:17:01;;;;;;;30.52;22.20;;;27.50;36.60;;;;;;5112075;27;20122;-38
2022/03/25 12:19:26;;;;;;;31.92;22.75;;;27.10;36.40;;;;;;5109117;28;20065;-40
2022/03/25 12:21:56;;;;;;;31.23;22.80;;;27.10;37.10;;;;;;5119503;27;20022;-41
2022/03/25 12:24:22;;;;;;;40.47;25.33;;;27.30;37.10;;;;;;5142339;27;20075;-39
2022/03/25 12:26:58;;;;;;;33.22;21.40;;;27.40;36.00;;;;;;5138940;27;20466;-39
2022/03/25 12:29:31;;;;;;;31.25;20.23;;;26.90;37.60;;;;;;5139796;27;20054;-39
2022/03/25 12:32:00;;;;;;;31.88;20.35;;;26.80;37.20;;;;;;5150683;27;20099;-39
2022/03/25 12:34:40;;;;;;;41.38;24.92;;;26.60;38.10;;;;;;5135525;27;20542;-39
2022/03/25 12:37:11;;;;;;;30.45;21.80;;;25.50;36.70;;;;;;5127159;27;20023;-40
2022/03/25 12:39:37;;;;;;;40.72;24.67;;;25.50;38.50;;;;;;5140741;27;20038;-41